sensor_id;sensor_type;location;lat;lon;timestamp;temperature;humidity
14142;DHT22;7151;52.246;4.820;2022-07-10T00:00:30;24.60;44.40
14142;DHT22;7151;52.246;4.820;2022-07-10T00:02:56;24.50;44.40
14142;DHT22;7151;52.246;4.820;2022-07-10T00:05:29;24.50;44.50
14142;DHT22;7151;52.246;4.820;2022-07-10T00:07:55;24.50;44.60
14142;DHT22;7151;52.246;4.820;2022-07-10T00:10:21;24.50;44.70
14142;DHT22;7151;52.246;4.820;2022-07-10T00:12:48;24.40;44.80
14142;DHT22;7151;52.246;4.820;2022-07-10T00:15:14;24.40;44.80
14142;DHT22;7151;52.246;4.820;2022-07-10T00:17:41;24.40;44.90
14142;DHT22;7151;52.246;4.820;2022-07-10T00:20:07;24.40;45.50
14142;DHT22;7151;52.246;4.820;2022-07-10T00:22:34;24.30;45.00
14142;DHT22;7151;52.246;4.820;2022-07-10T00:25:04;24.30;45.00
14142;DHT22;7151;52.246;4.820;2022-07-10T00:27:30;24.30;45.10
14142;DHT22;7151;52.246;4.820;2022-07-10T00:29:55;24.20;45.10
14142;DHT22;7151;52.246;4.820;2022-07-10T00:32:21;24.20;45.20
14142;DHT22;7151;52.246;4.820;2022-07-10T00:34:47;24.10;45.10
14142;DHT22;7151;52.246;4.820;2022-07-10T00:37:12;24.10;45.20
14142;DHT22;7151;52.246;4.820;2022-07-10T00:39:38;24.10;45.30
14142;DHT22;7151;52.246;4.820;2022-07-10T00:42:11;23.90;45.30
14142;DHT22;7151;52.246;4.820;2022-07-10T00:44:37;23.80;45.50
14142;DHT22;7151;52.246;4.820;2022-07-10T00:47:07;23.70;45.40
14142;DHT22;7151;52.246;4.820;2022-07-10T00:49:38;23.60;45.60
14142;DHT22;7151;52.246;4.820;2022-07-10T00:52:08;23.50;45.70
14142;DHT22;7151;52.246;4.820;2022-07-10T00:54:35;23.30;45.80
14142;DHT22;7151;52.246;4.820;2022-07-10T00:57:04;23.20;46.00
14142;DHT22;7151;52.246;4.820;2022-07-10T00:59:31;23.10;46.20
14142;DHT22;7151;52.246;4.820;2022-07-10T01:01:56;23.00;46.30
14142;DHT22;7151;52.246;4.820;2022-07-10T01:04:22;22.90;46.50
14142;DHT22;7151;52.246;4.820;2022-07-10T01:06:47;22.80;46.70
14142;DHT22;7151;52.246;4.820;2022-07-10T01:09:13;22.80;46.90
14142;DHT22;7151;52.246;4.820;2022-07-10T01:11:39;22.70;46.90
14142;DHT22;7151;52.246;4.820;2022-07-10T01:14:06;22.60;47.10
14142;DHT22;7151;52.246;4.820;2022-07-10T01:16:31;22.60;47.20
14142;DHT22;7151;52.246;4.820;2022-07-10T01:18:57;22.60;47.40
14142;DHT22;7151;52.246;4.820;2022-07-10T01:21:34;22.50;47.50
14142;DHT22;7151;52.246;4.820;2022-07-10T01:24:07;22.50;47.80
14142;DHT22;7151;52.246;4.820;2022-07-10T01:26:33;22.40;47.70
14142;DHT22;7151;52.246;4.820;2022-07-10T01:29:05;22.30;47.80
14142;DHT22;7151;52.246;4.820;2022-07-10T01:31:32;22.30;48.00
14142;DHT22;7151;52.246;4.820;2022-07-10T01:34:00;22.30;48.10
14142;DHT22;7151;52.246;4.820;2022-07-10T01:36:28;22.20;48.20
14142;DHT22;7151;52.246;4.820;2022-07-10T01:38:58;22.10;48.30
14142;DHT22;7151;52.246;4.820;2022-07-10T01:41:25;22.10;48.50
14142;DHT22;7151;52.246;4.820;2022-07-10T01:43:51;22.10;48.50
14142;DHT22;7151;52.246;4.820;2022-07-10T01:46:17;22.00;48.60
14142;DHT22;7151;52.246;4.820;2022-07-10T01:48:43;22.00;48.70
14142;DHT22;7151;52.246;4.820;2022-07-10T01:51:10;21.90;48.80
14142;DHT22;7151;52.246;4.820;2022-07-10T01:53:36;21.90;48.90
14142;DHT22;7151;52.246;4.820;2022-07-10T01:56:04;21.90;49.00
14142;DHT22;7151;52.246;4.820;2022-07-10T01:58:30;21.90;49.20
14142;DHT22;7151;52.246;4.820;2022-07-10T02:00:56;21.80;49.20
14142;DHT22;7151;52.246;4.820;2022-07-10T02:03:22;21.80;49.30
14142;DHT22;7151;52.246;4.820;2022-07-10T02:06:06;21.80;49.50
14142;DHT22;7151;52.246;4.820;2022-07-10T02:08:32;21.80;49.60
14142;DHT22;7151;52.246;4.820;2022-07-10T02:10:58;21.80;49.70
14142;DHT22;7151;52.246;4.820;2022-07-10T02:13:23;21.80;49.80
14142;DHT22;7151;52.246;4.820;2022-07-10T02:15:56;21.70;49.80
14142;DHT22;7151;52.246;4.820;2022-07-10T02:18:22;21.70;49.90
14142;DHT22;7151;52.246;4.820;2022-07-10T02:20:48;21.70;50.10
14142;DHT22;7151;52.246;4.820;2022-07-10T02:23:13;21.70;50.20
14142;DHT22;7151;52.246;4.820;2022-07-10T02:25:39;21.70;50.20
14142;DHT22;7151;52.246;4.820;2022-07-10T02:28:05;21.70;50.30
14142;DHT22;7151;52.246;4.820;2022-07-10T02:30:30;21.70;50.40
14142;DHT22;7151;52.246;4.820;2022-07-10T02:32:56;21.70;50.50
14142;DHT22;7151;52.246;4.820;2022-07-10T02:35:22;21.70;50.60
14142;DHT22;7151;52.246;4.820;2022-07-10T02:37:48;21.70;51.10
14142;DHT22;7151;52.246;4.820;2022-07-10T02:40:14;21.70;50.60
14142;DHT22;7151;52.246;4.820;2022-07-10T02:42:40;21.70;50.60
14142;DHT22;7151;52.246;4.820;2022-07-10T02:45:06;21.70;50.70
14142;DHT22;7151;52.246;4.820;2022-07-10T02:47:32;21.70;50.70
14142;DHT22;7151;52.246;4.820;2022-07-10T02:49:57;21.70;50.70
14142;DHT22;7151;52.246;4.820;2022-07-10T02:52:23;21.70;50.70
14142;DHT22;7151;52.246;4.820;2022-07-10T02:54:49;21.70;50.70
14142;DHT22;7151;52.246;4.820;2022-07-10T02:57:16;21.70;50.70
14142;DHT22;7151;52.246;4.820;2022-07-10T02:59:41;21.70;50.70
14142;DHT22;7151;52.246;4.820;2022-07-10T03:02:07;21.70;50.70
14142;DHT22;7151;52.246;4.820;2022-07-10T03:04:33;21.70;50.70
14142;DHT22;7151;52.246;4.820;2022-07-10T03:06:58;21.70;50.80
14142;DHT22;7151;52.246;4.820;2022-07-10T03:09:24;21.70;50.90
14142;DHT22;7151;52.246;4.820;2022-07-10T03:11:51;21.70;50.90
14142;DHT22;7151;52.246;4.820;2022-07-10T03:14:16;21.70;51.00
14142;DHT22;7151;52.246;4.820;2022-07-10T03:16:42;21.70;51.00
14142;DHT22;7151;52.246;4.820;2022-07-10T03:19:08;21.70;50.90
14142;DHT22;7151;52.246;4.820;2022-07-10T03:21:34;21.70;50.90
14142;DHT22;7151;52.246;4.820;2022-07-10T03:23:59;21.70;51.00
14142;DHT22;7151;52.246;4.820;2022-07-10T03:26:25;21.70;51.00
14142;DHT22;7151;52.246;4.820;2022-07-10T03:28:52;21.70;51.10
14142;DHT22;7151;52.246;4.820;2022-07-10T03:31:17;21.70;51.20
14142;DHT22;7151;52.246;4.820;2022-07-10T03:33:43;21.60;51.10
14142;DHT22;7151;52.246;4.820;2022-07-10T03:36:08;21.60;51.20
14142;DHT22;7151;52.246;4.820;2022-07-10T03:38:34;21.70;51.30
14142;DHT22;7151;52.246;4.820;2022-07-10T03:40:59;21.60;51.20
14142;DHT22;7151;52.246;4.820;2022-07-10T03:43:25;21.60;51.30
14142;DHT22;7151;52.246;4.820;2022-07-10T03:45:51;21.60;51.40
14142;DHT22;7151;52.246;4.820;2022-07-10T03:48:17;21.60;51.50
14142;DHT22;7151;52.246;4.820;2022-07-10T03:50:42;21.60;51.60
14142;DHT22;7151;52.246;4.820;2022-07-10T03:53:08;21.60;51.60
14142;DHT22;7151;52.246;4.820;2022-07-10T03:55:34;21.60;51.60
14142;DHT22;7151;52.246;4.820;2022-07-10T03:58:00;21.60;51.60
14142;DHT22;7151;52.246;4.820;2022-07-10T04:00:29;21.60;51.70
14142;DHT22;7151;52.246;4.820;2022-07-10T04:02:58;21.60;51.80
14142;DHT22;7151;52.246;4.820;2022-07-10T04:05:25;21.60;51.80
14142;DHT22;7151;52.246;4.820;2022-07-10T04:07:51;21.60;51.90
14142;DHT22;7151;52.246;4.820;2022-07-10T04:10:17;21.60;52.00
14142;DHT22;7151;52.246;4.820;2022-07-10T04:12:43;21.60;52.00
14142;DHT22;7151;52.246;4.820;2022-07-10T04:15:09;21.60;52.00
14142;DHT22;7151;52.246;4.820;2022-07-10T04:17:35;21.60;52.10
14142;DHT22;7151;52.246;4.820;2022-07-10T04:20:01;21.60;52.00
14142;DHT22;7151;52.246;4.820;2022-07-10T04:22:27;21.60;52.00
14142;DHT22;7151;52.246;4.820;2022-07-10T04:24:56;21.60;52.10
14142;DHT22;7151;52.246;4.820;2022-07-10T04:27:21;21.60;52.20
14142;DHT22;7151;52.246;4.820;2022-07-10T04:29:47;21.60;52.20
14142;DHT22;7151;52.246;4.820;2022-07-10T04:32:14;21.60;52.20
14142;DHT22;7151;52.246;4.820;2022-07-10T04:34:39;21.60;52.30
14142;DHT22;7151;52.246;4.820;2022-07-10T04:37:05;21.60;52.50
14142;DHT22;7151;52.246;4.820;2022-07-10T04:39:38;21.60;53.10
14142;DHT22;7151;52.246;4.820;2022-07-10T04:42:05;21.60;52.60
14142;DHT22;7151;52.246;4.820;2022-07-10T04:44:31;21.60;52.70
14142;DHT22;7151;52.246;4.820;2022-07-10T04:46:57;21.60;52.80
14142;DHT22;7151;52.246;4.820;2022-07-10T04:49:23;21.60;52.90
14142;DHT22;7151;52.246;4.820;2022-07-10T04:51:49;21.60;52.80
14142;DHT22;7151;52.246;4.820;2022-07-10T04:54:15;21.60;52.90
14142;DHT22;7151;52.246;4.820;2022-07-10T04:56:40;21.60;52.90
14142;DHT22;7151;52.246;4.820;2022-07-10T04:59:06;21.60;52.90
14142;DHT22;7151;52.246;4.820;2022-07-10T05:01:33;21.60;52.90
14142;DHT22;7151;52.246;4.820;2022-07-10T05:03:58;21.50;52.90
14142;DHT22;7151;52.246;4.820;2022-07-10T05:06:24;21.60;53.00
14142;DHT22;7151;52.246;4.820;2022-07-10T05:08:49;21.50;53.00
14142;DHT22;7151;52.246;4.820;2022-07-10T05:11:15;21.50;53.00
14142;DHT22;7151;52.246;4.820;2022-07-10T05:13:41;21.50;53.00
14142;DHT22;7151;52.246;4.820;2022-07-10T05:16:10;21.50;53.10
14142;DHT22;7151;52.246;4.820;2022-07-10T05:18:36;21.50;53.20
14142;DHT22;7151;52.246;4.820;2022-07-10T05:21:01;21.50;53.20
14142;DHT22;7151;52.246;4.820;2022-07-10T05:23:27;21.50;53.20
14142;DHT22;7151;52.246;4.820;2022-07-10T05:25:55;21.50;53.30
14142;DHT22;7151;52.246;4.820;2022-07-10T05:28:21;21.50;53.40
14142;DHT22;7151;52.246;4.820;2022-07-10T05:30:46;21.50;53.40
14142;DHT22;7151;52.246;4.820;2022-07-10T05:33:14;21.50;53.40
14142;DHT22;7151;52.246;4.820;2022-07-10T05:35:40;21.50;53.40
14142;DHT22;7151;52.246;4.820;2022-07-10T05:38:06;21.50;53.50
14142;DHT22;7151;52.246;4.820;2022-07-10T05:40:31;21.50;53.60
14142;DHT22;7151;52.246;4.820;2022-07-10T05:42:57;21.50;53.60
14142;DHT22;7151;52.246;4.820;2022-07-10T05:45:23;21.50;53.60
14142;DHT22;7151;52.246;4.820;2022-07-10T05:47:48;21.50;53.70
14142;DHT22;7151;52.246;4.820;2022-07-10T05:50:14;21.50;53.80
14142;DHT22;7151;52.246;4.820;2022-07-10T05:52:39;21.50;53.80
14142;DHT22;7151;52.246;4.820;2022-07-10T05:55:06;21.60;54.00
14142;DHT22;7151;52.246;4.820;2022-07-10T05:57:31;21.50;54.00
14142;DHT22;7151;52.246;4.820;2022-07-10T05:59:57;21.60;54.10
14142;DHT22;7151;52.246;4.820;2022-07-10T06:02:23;21.60;54.00
14142;DHT22;7151;52.246;4.820;2022-07-10T06:04:48;21.60;54.10
14142;DHT22;7151;52.246;4.820;2022-07-10T06:07:14;21.60;54.10
14142;DHT22;7151;52.246;4.820;2022-07-10T06:09:40;21.60;54.10
14142;DHT22;7151;52.246;4.820;2022-07-10T06:12:06;21.60;54.20
14142;DHT22;7151;52.246;4.820;2022-07-10T06:14:32;21.60;54.10
14142;DHT22;7151;52.246;4.820;2022-07-10T06:16:57;21.70;54.30
14142;DHT22;7151;52.246;4.820;2022-07-10T06:19:23;21.70;54.40
14142;DHT22;7151;52.246;4.820;2022-07-10T06:21:48;21.70;54.40
14142;DHT22;7151;52.246;4.820;2022-07-10T06:24:34;21.70;54.40
14142;DHT22;7151;52.246;4.820;2022-07-10T06:26:59;21.70;54.40
14142;DHT22;7151;52.246;4.820;2022-07-10T06:29:25;21.70;54.50
14142;DHT22;7151;52.246;4.820;2022-07-10T06:31:50;21.70;54.50
14142;DHT22;7151;52.246;4.820;2022-07-10T06:34:16;21.70;54.50
14142;DHT22;7151;52.246;4.820;2022-07-10T06:36:42;21.70;54.60
14142;DHT22;7151;52.246;4.820;2022-07-10T06:39:07;21.60;54.60
14142;DHT22;7151;52.246;4.820;2022-07-10T06:41:33;21.70;54.70
14142;DHT22;7151;52.246;4.820;2022-07-10T06:43:58;21.70;54.70
14142;DHT22;7151;52.246;4.820;2022-07-10T06:46:26;21.70;54.70
14142;DHT22;7151;52.246;4.820;2022-07-10T06:48:52;21.70;54.80
14142;DHT22;7151;52.246;4.820;2022-07-10T06:51:18;21.70;54.80
14142;DHT22;7151;52.246;4.820;2022-07-10T06:53:43;21.60;54.70
14142;DHT22;7151;52.246;4.820;2022-07-10T06:56:09;21.70;54.80
14142;DHT22;7151;52.246;4.820;2022-07-10T06:58:35;21.70;55.30
14142;DHT22;7151;52.246;4.820;2022-07-10T07:01:00;21.70;54.80
14142;DHT22;7151;52.246;4.820;2022-07-10T07:03:26;21.70;54.80
14142;DHT22;7151;52.246;4.820;2022-07-10T07:05:51;21.70;54.80
14142;DHT22;7151;52.246;4.820;2022-07-10T07:08:17;21.70;54.80
14142;DHT22;7151;52.246;4.820;2022-07-10T07:10:43;21.70;54.90
14142;DHT22;7151;52.246;4.820;2022-07-10T07:13:09;21.70;54.90
14142;DHT22;7151;52.246;4.820;2022-07-10T07:15:35;21.70;54.90
14142;DHT22;7151;52.246;4.820;2022-07-10T07:18:04;21.70;54.90
14142;DHT22;7151;52.246;4.820;2022-07-10T07:20:34;21.80;55.00
14142;DHT22;7151;52.246;4.820;2022-07-10T07:23:19;21.80;55.00
14142;DHT22;7151;52.246;4.820;2022-07-10T07:25:44;21.80;55.60
14142;DHT22;7151;52.246;4.820;2022-07-10T07:28:16;21.80;55.00
14142;DHT22;7151;52.246;4.820;2022-07-10T07:30:44;21.80;55.00
14142;DHT22;7151;52.246;4.820;2022-07-10T07:33:09;21.80;55.00
14142;DHT22;7151;52.246;4.820;2022-07-10T07:35:35;21.80;55.00
14142;DHT22;7151;52.246;4.820;2022-07-10T07:38:02;21.80;55.10
14142;DHT22;7151;52.246;4.820;2022-07-10T07:40:28;21.80;55.10
14142;DHT22;7151;52.246;4.820;2022-07-10T07:42:55;21.80;55.10
14142;DHT22;7151;52.246;4.820;2022-07-10T07:45:21;21.90;55.20
14142;DHT22;7151;52.246;4.820;2022-07-10T07:47:55;21.90;55.20
14142;DHT22;7151;52.246;4.820;2022-07-10T07:50:22;21.90;55.20
14142;DHT22;7151;52.246;4.820;2022-07-10T07:52:49;21.90;55.20
14142;DHT22;7151;52.246;4.820;2022-07-10T07:55:16;21.90;55.20
14142;DHT22;7151;52.246;4.820;2022-07-10T07:57:43;21.90;55.10
14142;DHT22;7151;52.246;4.820;2022-07-10T08:00:09;21.90;55.10
14142;DHT22;7151;52.246;4.820;2022-07-10T08:02:36;21.90;55.20
14142;DHT22;7151;52.246;4.820;2022-07-10T08:05:02;22.00;55.20
14142;DHT22;7151;52.246;4.820;2022-07-10T08:07:49;22.00;55.20
14142;DHT22;7151;52.246;4.820;2022-07-10T08:10:17;22.00;55.30
14142;DHT22;7151;52.246;4.820;2022-07-10T08:12:43;22.00;55.30
14142;DHT22;7151;52.246;4.820;2022-07-10T08:15:12;22.00;55.40
14142;DHT22;7151;52.246;4.820;2022-07-10T08:17:38;22.10;55.50
14142;DHT22;7151;52.246;4.820;2022-07-10T08:20:04;22.10;55.50
14142;DHT22;7151;52.246;4.820;2022-07-10T08:22:31;22.10;55.60
14142;DHT22;7151;52.246;4.820;2022-07-10T08:24:56;22.20;55.60
14142;DHT22;7151;52.246;4.820;2022-07-10T08:27:22;22.20;55.60
14142;DHT22;7151;52.246;4.820;2022-07-10T08:29:48;22.20;55.70
14142;DHT22;7151;52.246;4.820;2022-07-10T08:32:14;22.30;55.70
14142;DHT22;7151;52.246;4.820;2022-07-10T08:34:39;22.30;55.80
14142;DHT22;7151;52.246;4.820;2022-07-10T08:37:05;22.30;55.60
14142;DHT22;7151;52.246;4.820;2022-07-10T08:39:31;22.40;55.50
14142;DHT22;7151;52.246;4.820;2022-07-10T08:41:57;22.50;55.30
14142;DHT22;7151;52.246;4.820;2022-07-10T08:44:23;22.50;55.20
14142;DHT22;7151;52.246;4.820;2022-07-10T08:46:49;22.60;55.20
14142;DHT22;7151;52.246;4.820;2022-07-10T08:49:16;22.80;55.20
14142;DHT22;7151;52.246;4.820;2022-07-10T08:51:57;22.80;55.10
14142;DHT22;7151;52.246;4.820;2022-07-10T08:54:27;22.90;55.10
14142;DHT22;7151;52.246;4.820;2022-07-10T08:56:55;23.00;54.90
14142;DHT22;7151;52.246;4.820;2022-07-10T08:59:22;23.10;54.80
14142;DHT22;7151;52.246;4.820;2022-07-10T09:01:48;23.20;54.70
14142;DHT22;7151;52.246;4.820;2022-07-10T09:04:19;23.30;54.60
14142;DHT22;7151;52.246;4.820;2022-07-10T09:06:45;23.40;54.50
14142;DHT22;7151;52.246;4.820;2022-07-10T09:09:10;23.40;54.30
14142;DHT22;7151;52.246;4.820;2022-07-10T09:11:38;23.40;54.20
14142;DHT22;7151;52.246;4.820;2022-07-10T09:14:07;23.60;54.10
14142;DHT22;7151;52.246;4.820;2022-07-10T09:16:35;23.60;54.00
14142;DHT22;7151;52.246;4.820;2022-07-10T09:19:21;23.60;53.90
14142;DHT22;7151;52.246;4.820;2022-07-10T09:22:09;23.70;53.80
14142;DHT22;7151;52.246;4.820;2022-07-10T09:24:42;23.70;53.70
14142;DHT22;7151;52.246;4.820;2022-07-10T09:27:08;23.80;53.60
14142;DHT22;7151;52.246;4.820;2022-07-10T09:29:48;23.80;53.50
14142;DHT22;7151;52.246;4.820;2022-07-10T09:32:15;23.80;53.30
14142;DHT22;7151;52.246;4.820;2022-07-10T09:34:44;23.90;53.30
14142;DHT22;7151;52.246;4.820;2022-07-10T09:39:52;23.90;53.20
14142;DHT22;7151;52.246;4.820;2022-07-10T09:42:29;24.00;53.10
14142;DHT22;7151;52.246;4.820;2022-07-10T09:47:39;24.00;53.00
14142;DHT22;7151;52.246;4.820;2022-07-10T09:50:20;24.10;53.00
14142;DHT22;7151;52.246;4.820;2022-07-10T09:52:50;24.20;52.90
14142;DHT22;7151;52.246;4.820;2022-07-10T09:55:18;24.30;52.80
14142;DHT22;7151;52.246;4.820;2022-07-10T09:57:46;24.30;52.70
14142;DHT22;7151;52.246;4.820;2022-07-10T10:00:14;24.40;52.70
14142;DHT22;7151;52.246;4.820;2022-07-10T10:02:40;24.40;52.50
14142;DHT22;7151;52.246;4.820;2022-07-10T10:05:07;24.50;52.50
14142;DHT22;7151;52.246;4.820;2022-07-10T10:07:34;24.50;52.40
14142;DHT22;7151;52.246;4.820;2022-07-10T10:10:04;24.60;52.30
14142;DHT22;7151;52.246;4.820;2022-07-10T10:12:39;24.70;52.30
14142;DHT22;7151;52.246;4.820;2022-07-10T10:15:09;24.70;52.10
14142;DHT22;7151;52.246;4.820;2022-07-10T10:17:36;24.80;51.90
14142;DHT22;7151;52.246;4.820;2022-07-10T10:20:02;24.80;51.80
14142;DHT22;7151;52.246;4.820;2022-07-10T10:22:48;24.80;51.80
14142;DHT22;7151;52.246;4.820;2022-07-10T10:25:16;24.90;51.80
14142;DHT22;7151;52.246;4.820;2022-07-10T10:27:45;24.90;51.80
14142;DHT22;7151;52.246;4.820;2022-07-10T10:30:11;24.90;51.70
14142;DHT22;7151;52.246;4.820;2022-07-10T10:32:40;25.00;51.60
14142;DHT22;7151;52.246;4.820;2022-07-10T10:35:06;25.00;51.40
14142;DHT22;7151;52.246;4.820;2022-07-10T10:37:41;25.00;51.40
14142;DHT22;7151;52.246;4.820;2022-07-10T10:40:10;25.00;51.10
14142;DHT22;7151;52.246;4.820;2022-07-10T10:42:40;25.00;51.00
14142;DHT22;7151;52.246;4.820;2022-07-10T10:45:33;25.10;50.90
14142;DHT22;7151;52.246;4.820;2022-07-10T10:48:10;25.10;50.50
14142;DHT22;7151;52.246;4.820;2022-07-10T10:50:49;25.10;50.40
14142;DHT22;7151;52.246;4.820;2022-07-10T10:53:24;25.20;50.40
14142;DHT22;7151;52.246;4.820;2022-07-10T10:58:39;25.30;50.30
14142;DHT22;7151;52.246;4.820;2022-07-10T11:01:23;25.30;50.00
14142;DHT22;7151;52.246;4.820;2022-07-10T11:09:31;25.50;49.70
14142;DHT22;7151;52.246;4.820;2022-07-10T11:14:24;25.50;49.60
14142;DHT22;7151;52.246;4.820;2022-07-10T11:16:54;25.60;49.40
14142;DHT22;7151;52.246;4.820;2022-07-10T11:19:27;25.60;49.30
14142;DHT22;7151;52.246;4.820;2022-07-10T11:25:39;25.70;49.20
14142;DHT22;7151;52.246;4.820;2022-07-10T11:28:11;25.70;49.30
14142;DHT22;7151;52.246;4.820;2022-07-10T11:30:51;25.70;49.30
14142;DHT22;7151;52.246;4.820;2022-07-10T11:33:17;25.80;49.10
14142;DHT22;7151;52.246;4.820;2022-07-10T11:35:49;25.80;49.10
14142;DHT22;7151;52.246;4.820;2022-07-10T11:38:22;25.80;48.90
14142;DHT22;7151;52.246;4.820;2022-07-10T11:40:48;25.80;48.90
14142;DHT22;7151;52.246;4.820;2022-07-10T11:43:15;25.90;48.90
14142;DHT22;7151;52.246;4.820;2022-07-10T11:45:43;25.90;48.80
14142;DHT22;7151;52.246;4.820;2022-07-10T11:48:16;26.00;49.00
14142;DHT22;7151;52.246;4.820;2022-07-10T11:50:43;26.00;49.00
14142;DHT22;7151;52.246;4.820;2022-07-10T11:53:09;26.10;48.80
14142;DHT22;7151;52.246;4.820;2022-07-10T11:55:37;26.10;48.60
14142;DHT22;7151;52.246;4.820;2022-07-10T11:58:18;26.20;48.70
14142;DHT22;7151;52.246;4.820;2022-07-10T12:01:00;26.20;48.60
14142;DHT22;7151;52.246;4.820;2022-07-10T12:03:27;26.30;48.60
14142;DHT22;7151;52.246;4.820;2022-07-10T12:05:52;26.30;48.60
14142;DHT22;7151;52.246;4.820;2022-07-10T12:08:18;26.40;48.60
14142;DHT22;7151;52.246;4.820;2022-07-10T12:10:44;26.50;48.30
14142;DHT22;7151;52.246;4.820;2022-07-10T12:13:12;26.50;48.20
14142;DHT22;7151;52.246;4.820;2022-07-10T12:15:43;26.50;48.20
14142;DHT22;7151;52.246;4.820;2022-07-10T12:18:24;26.50;48.20
14142;DHT22;7151;52.246;4.820;2022-07-10T12:20:50;26.60;48.20
14142;DHT22;7151;52.246;4.820;2022-07-10T12:23:18;26.60;48.30
14142;DHT22;7151;52.246;4.820;2022-07-10T12:25:47;26.60;48.10
14142;DHT22;7151;52.246;4.820;2022-07-10T12:28:14;26.60;48.10
14142;DHT22;7151;52.246;4.820;2022-07-10T12:30:48;26.70;48.10
14142;DHT22;7151;52.246;4.820;2022-07-10T12:33:21;26.70;48.70
14142;DHT22;7151;52.246;4.820;2022-07-10T12:35:51;26.70;48.20
14142;DHT22;7151;52.246;4.820;2022-07-10T12:38:24;26.80;48.30
14142;DHT22;7151;52.246;4.820;2022-07-10T12:40:51;26.80;48.30
14142;DHT22;7151;52.246;4.820;2022-07-10T12:43:27;26.80;48.40
14142;DHT22;7151;52.246;4.820;2022-07-10T12:48:41;26.90;48.60
14142;DHT22;7151;52.246;4.820;2022-07-10T12:51:26;26.90;48.60
14142;DHT22;7151;52.246;4.820;2022-07-10T12:53:54;27.00;48.50
14142;DHT22;7151;52.246;4.820;2022-07-10T12:56:33;27.00;48.60
14142;DHT22;7151;52.246;4.820;2022-07-10T12:59:00;27.00;48.40
14142;DHT22;7151;52.246;4.820;2022-07-10T13:01:27;27.10;48.50
14142;DHT22;7151;52.246;4.820;2022-07-10T13:04:01;27.10;48.40
14142;DHT22;7151;52.246;4.820;2022-07-10T13:08:54;27.30;48.40
14142;DHT22;7151;52.246;4.820;2022-07-10T13:11:20;27.30;48.30
14142;DHT22;7151;52.246;4.820;2022-07-10T13:13:47;27.40;48.30
14142;DHT22;7151;52.246;4.820;2022-07-10T13:16:12;27.40;48.30
14142;DHT22;7151;52.246;4.820;2022-07-10T13:18:42;27.50;48.10
14142;DHT22;7151;52.246;4.820;2022-07-10T13:21:09;27.50;47.90
14142;DHT22;7151;52.246;4.820;2022-07-10T13:23:36;27.60;47.90
14142;DHT22;7151;52.246;4.820;2022-07-10T13:26:03;27.60;47.80
14142;DHT22;7151;52.246;4.820;2022-07-10T13:28:29;27.60;47.80
14142;DHT22;7151;52.246;4.820;2022-07-10T13:30:55;27.60;47.90
14142;DHT22;7151;52.246;4.820;2022-07-10T13:33:20;27.70;47.90
14142;DHT22;7151;52.246;4.820;2022-07-10T13:35:46;27.70;47.90
14142;DHT22;7151;52.246;4.820;2022-07-10T13:38:13;27.70;47.90
14142;DHT22;7151;52.246;4.820;2022-07-10T13:40:38;27.70;47.90
14142;DHT22;7151;52.246;4.820;2022-07-10T13:43:06;27.70;47.90
14142;DHT22;7151;52.246;4.820;2022-07-10T13:45:34;27.80;47.90
14142;DHT22;7151;52.246;4.820;2022-07-10T13:48:05;27.80;47.90
14142;DHT22;7151;52.246;4.820;2022-07-10T13:50:31;27.90;47.80
14142;DHT22;7151;52.246;4.820;2022-07-10T13:52:58;28.00;47.70
14142;DHT22;7151;52.246;4.820;2022-07-10T13:55:24;28.00;47.60
14142;DHT22;7151;52.246;4.820;2022-07-10T13:57:50;28.00;47.40
14142;DHT22;7151;52.246;4.820;2022-07-10T14:00:15;28.00;47.20
14142;DHT22;7151;52.246;4.820;2022-07-10T14:02:41;28.10;47.20
14142;DHT22;7151;52.246;4.820;2022-07-10T14:05:07;28.10;47.30
14142;DHT22;7151;52.246;4.820;2022-07-10T14:07:35;28.10;47.20
14142;DHT22;7151;52.246;4.820;2022-07-10T14:10:01;28.10;47.10
14142;DHT22;7151;52.246;4.820;2022-07-10T14:12:27;28.10;47.10
14142;DHT22;7151;52.246;4.820;2022-07-10T14:14:53;28.10;47.10
14142;DHT22;7151;52.246;4.820;2022-07-10T14:17:18;28.10;47.00
14142;DHT22;7151;52.246;4.820;2022-07-10T14:19:44;28.10;46.90
14142;DHT22;7151;52.246;4.820;2022-07-10T14:22:09;28.10;46.80
14142;DHT22;7151;52.246;4.820;2022-07-10T14:24:35;28.10;46.80
14142;DHT22;7151;52.246;4.820;2022-07-10T14:27:01;28.10;46.90
14142;DHT22;7151;52.246;4.820;2022-07-10T14:29:26;28.10;47.00
14142;DHT22;7151;52.246;4.820;2022-07-10T14:31:52;28.10;47.10
14142;DHT22;7151;52.246;4.820;2022-07-10T14:34:18;28.10;47.10
14142;DHT22;7151;52.246;4.820;2022-07-10T14:36:44;28.10;47.10
14142;DHT22;7151;52.246;4.820;2022-07-10T14:39:10;28.10;47.00
14142;DHT22;7151;52.246;4.820;2022-07-10T14:41:37;28.10;47.00
14142;DHT22;7151;52.246;4.820;2022-07-10T14:44:05;28.20;47.10
14142;DHT22;7151;52.246;4.820;2022-07-10T14:46:32;28.20;47.10
14142;DHT22;7151;52.246;4.820;2022-07-10T14:48:57;28.20;47.00
14142;DHT22;7151;52.246;4.820;2022-07-10T14:51:23;28.20;47.00
14142;DHT22;7151;52.246;4.820;2022-07-10T14:53:49;28.20;46.90
14142;DHT22;7151;52.246;4.820;2022-07-10T14:56:15;28.20;46.90
14142;DHT22;7151;52.246;4.820;2022-07-10T14:58:42;28.10;46.80
14142;DHT22;7151;52.246;4.820;2022-07-10T15:01:08;28.10;46.90
14142;DHT22;7151;52.246;4.820;2022-07-10T15:03:33;28.10;46.90
14142;DHT22;7151;52.246;4.820;2022-07-10T15:05:59;28.10;47.00
14142;DHT22;7151;52.246;4.820;2022-07-10T15:08:24;28.10;47.00
14142;DHT22;7151;52.246;4.820;2022-07-10T15:10:51;28.10;47.10
14142;DHT22;7151;52.246;4.820;2022-07-10T15:13:17;28.10;47.10
14142;DHT22;7151;52.246;4.820;2022-07-10T15:15:42;28.10;47.20
14142;DHT22;7151;52.246;4.820;2022-07-10T15:18:08;28.10;47.30
14142;DHT22;7151;52.246;4.820;2022-07-10T15:20:34;28.10;47.20
14142;DHT22;7151;52.246;4.820;2022-07-10T15:23:00;28.10;47.20
14142;DHT22;7151;52.246;4.820;2022-07-10T15:25:26;28.10;47.20
14142;DHT22;7151;52.246;4.820;2022-07-10T15:27:52;28.10;47.20
14142;DHT22;7151;52.246;4.820;2022-07-10T15:30:18;28.10;47.20
14142;DHT22;7151;52.246;4.820;2022-07-10T15:32:44;28.10;47.20
14142;DHT22;7151;52.246;4.820;2022-07-10T15:35:11;28.10;47.20
14142;DHT22;7151;52.246;4.820;2022-07-10T15:37:37;28.10;47.10
14142;DHT22;7151;52.246;4.820;2022-07-10T15:40:03;28.10;47.00
14142;DHT22;7151;52.246;4.820;2022-07-10T15:42:29;28.10;47.00
14142;DHT22;7151;52.246;4.820;2022-07-10T15:44:55;28.10;47.00
14142;DHT22;7151;52.246;4.820;2022-07-10T15:47:20;28.00;47.00
14142;DHT22;7151;52.246;4.820;2022-07-10T15:49:46;28.00;47.10
14142;DHT22;7151;52.246;4.820;2022-07-10T15:52:11;28.00;47.10
14142;DHT22;7151;52.246;4.820;2022-07-10T15:54:37;28.00;47.10
14142;DHT22;7151;52.246;4.820;2022-07-10T15:57:03;28.00;47.20
14142;DHT22;7151;52.246;4.820;2022-07-10T15:59:29;28.00;47.20
14142;DHT22;7151;52.246;4.820;2022-07-10T16:01:56;28.00;47.30
14142;DHT22;7151;52.246;4.820;2022-07-10T16:04:23;27.90;47.40
14142;DHT22;7151;52.246;4.820;2022-07-10T16:06:50;27.90;47.40
14142;DHT22;7151;52.246;4.820;2022-07-10T16:09:16;27.90;47.40
14142;DHT22;7151;52.246;4.820;2022-07-10T16:11:43;27.90;47.50